sensor_id;sensor_type;location;lat;lon;timestamp;P1;durP1;ratioP1;P2;durP2;ratioP2
7295;SDS011;40758;54.038;11.684;2023-07-13T00:00:28;4.30;;;1.50;;
7295;SDS011;40758;54.038;11.684;2023-07-13T00:02:57;5.20;;;2.55;;
7295;SDS011;40758;54.038;11.684;2023-07-13T00:05:28;7.18;;;1.67;;
7295;SDS011;40758;54.038;11.684;2023-07-13T00:10:56;2.90;;;1.30;;
7295;SDS011;40758;54.038;11.684;2023-07-13T00:13:23;3.78;;;1.58;;
7295;SDS011;40758;54.038;11.684;2023-07-13T00:15:50;4.70;;;1.52;;
7295;SDS011;40758;54.038;11.684;2023-07-13T00:18:17;6.32;;;3.10;;
7295;SDS011;40758;54.038;11.684;2023-07-13T00:20:43;4.00;;;1.88;;
7295;SDS011;40758;54.038;11.684;2023-07-13T00:23:23;5.28;;;3.58;;
7295;SDS011;40758;54.038;11.684;2023-07-13T00:26:13;5.28;;;2.33;;
7295;SDS011;40758;54.038;11.684;2023-07-13T00:28:40;4.55;;;1.55;;
7295;SDS011;40758;54.038;11.684;2023-07-13T00:31:09;3.45;;;1.38;;
7295;SDS011;40758;54.038;11.684;2023-07-13T00:33:37;4.88;;;1.98;;
7295;SDS011;40758;54.038;11.684;2023-07-13T00:36:03;5.15;;;1.30;;
7295;SDS011;40758;54.038;11.684;2023-07-13T00:38:30;3.55;;;1.80;;
7295;SDS011;40758;54.038;11.684;2023-07-13T00:41:16;6.40;;;2.08;;
7295;SDS011;40758;54.038;11.684;2023-07-13T00:43:54;4.45;;;2.03;;
7295;SDS011;40758;54.038;11.684;2023-07-13T00:46:25;5.85;;;1.50;;
7295;SDS011;40758;54.038;11.684;2023-07-13T00:48:54;5.07;;;2.10;;
7295;SDS011;40758;54.038;11.684;2023-07-13T00:54:30;3.83;;;1.70;;
7295;SDS011;40758;54.038;11.684;2023-07-13T00:57:27;3.90;;;1.50;;
7295;SDS011;40758;54.038;11.684;2023-07-13T00:59:55;4.60;;;1.90;;
7295;SDS011;40758;54.038;11.684;2023-07-13T01:02:25;5.45;;;1.50;;
7295;SDS011;40758;54.038;11.684;2023-07-13T01:04:55;4.07;;;1.38;;
7295;SDS011;40758;54.038;11.684;2023-07-13T01:07:22;4.10;;;1.98;;
7295;SDS011;40758;54.038;11.684;2023-07-13T01:09:49;4.72;;;1.95;;
7295;SDS011;40758;54.038;11.684;2023-07-13T01:12:16;4.55;;;1.88;;
7295;SDS011;40758;54.038;11.684;2023-07-13T01:14:42;3.40;;;1.55;;
7295;SDS011;40758;54.038;11.684;2023-07-13T01:17:10;4.03;;;1.38;;
7295;SDS011;40758;54.038;11.684;2023-07-13T01:19:39;4.47;;;1.50;;
7295;SDS011;40758;54.038;11.684;2023-07-13T01:22:10;3.28;;;1.75;;
7295;SDS011;40758;54.038;11.684;2023-07-13T01:24:39;4.30;;;1.77;;
7295;SDS011;40758;54.038;11.684;2023-07-13T01:27:09;4.65;;;1.83;;
7295;SDS011;40758;54.038;11.684;2023-07-13T01:29:38;4.70;;;1.55;;
7295;SDS011;40758;54.038;11.684;2023-07-13T01:32:09;5.20;;;1.80;;
7295;SDS011;40758;54.038;11.684;2023-07-13T01:34:37;5.85;;;1.52;;
7295;SDS011;40758;54.038;11.684;2023-07-13T01:37:05;4.47;;;1.65;;
7295;SDS011;40758;54.038;11.684;2023-07-13T01:42:27;5.35;;;1.70;;
7295;SDS011;40758;54.038;11.684;2023-07-13T01:44:54;4.43;;;1.73;;
7295;SDS011;40758;54.038;11.684;2023-07-13T01:47:22;3.72;;;1.48;;
7295;SDS011;40758;54.038;11.684;2023-07-13T01:49:49;7.30;;;2.10;;
7295;SDS011;40758;54.038;11.684;2023-07-13T01:52:18;5.35;;;1.90;;
7295;SDS011;40758;54.038;11.684;2023-07-13T01:54:44;6.05;;;2.00;;
7295;SDS011;40758;54.038;11.684;2023-07-13T01:57:11;8.52;;;2.38;;
7295;SDS011;40758;54.038;11.684;2023-07-13T01:59:37;4.80;;;1.98;;
7295;SDS011;40758;54.038;11.684;2023-07-13T02:02:22;4.78;;;1.52;;
7295;SDS011;40758;54.038;11.684;2023-07-13T02:04:49;3.72;;;1.08;;
7295;SDS011;40758;54.038;11.684;2023-07-13T02:07:16;4.10;;;1.73;;
7295;SDS011;40758;54.038;11.684;2023-07-13T02:09:42;3.00;;;1.52;;
7295;SDS011;40758;54.038;11.684;2023-07-13T02:12:09;5.30;;;2.10;;
7295;SDS011;40758;54.038;11.684;2023-07-13T02:14:36;6.25;;;2.28;;
7295;SDS011;40758;54.038;11.684;2023-07-13T02:17:03;4.32;;;1.63;;
7295;SDS011;40758;54.038;11.684;2023-07-13T02:19:30;5.28;;;2.17;;
7295;SDS011;40758;54.038;11.684;2023-07-13T02:21:57;6.55;;;2.45;;
7295;SDS011;40758;54.038;11.684;2023-07-13T02:24:24;6.88;;;2.40;;
7295;SDS011;40758;54.038;11.684;2023-07-13T02:26:53;9.82;;;3.38;;
7295;SDS011;40758;54.038;11.684;2023-07-13T02:29:20;5.70;;;2.45;;
7295;SDS011;40758;54.038;11.684;2023-07-13T02:31:47;8.63;;;3.30;;
7295;SDS011;40758;54.038;11.684;2023-07-13T02:34:41;7.20;;;3.30;;
7295;SDS011;40758;54.038;11.684;2023-07-13T02:37:08;5.93;;;3.45;;
7295;SDS011;40758;54.038;11.684;2023-07-13T02:39:35;5.82;;;3.15;;
7295;SDS011;40758;54.038;11.684;2023-07-13T02:42:02;7.28;;;3.13;;
7295;SDS011;40758;54.038;11.684;2023-07-13T02:44:29;6.35;;;3.17;;
7295;SDS011;40758;54.038;11.684;2023-07-13T02:46:56;9.43;;;3.28;;
7295;SDS011;40758;54.038;11.684;2023-07-13T02:49:23;6.53;;;3.42;;
7295;SDS011;40758;54.038;11.684;2023-07-13T02:51:50;6.65;;;3.40;;
7295;SDS011;40758;54.038;11.684;2023-07-13T02:54:17;5.10;;;3.65;;
7295;SDS011;40758;54.038;11.684;2023-07-13T02:56:44;7.32;;;3.67;;
7295;SDS011;40758;54.038;11.684;2023-07-13T02:59:10;7.18;;;4.28;;
7295;SDS011;40758;54.038;11.684;2023-07-13T03:01:38;7.40;;;3.90;;
7295;SDS011;40758;54.038;11.684;2023-07-13T03:04:05;9.80;;;3.60;;
7295;SDS011;40758;54.038;11.684;2023-07-13T03:06:35;8.02;;;3.85;;
7295;SDS011;40758;54.038;11.684;2023-07-13T03:09:06;6.43;;;4.03;;
7295;SDS011;40758;54.038;11.684;2023-07-13T03:11:33;7.68;;;4.45;;
7295;SDS011;40758;54.038;11.684;2023-07-13T03:14:02;7.72;;;4.03;;
7295;SDS011;40758;54.038;11.684;2023-07-13T03:16:28;7.15;;;3.60;;
7295;SDS011;40758;54.038;11.684;2023-07-13T03:18:55;10.02;;;4.60;;
7295;SDS011;40758;54.038;11.684;2023-07-13T03:21:22;8.13;;;5.38;;
7295;SDS011;40758;54.038;11.684;2023-07-13T03:27:07;10.57;;;6.20;;
7295;SDS011;40758;54.038;11.684;2023-07-13T03:29:34;13.00;;;7.47;;
7295;SDS011;40758;54.038;11.684;2023-07-13T03:32:00;8.80;;;5.15;;
7295;SDS011;40758;54.038;11.684;2023-07-13T03:34:27;12.38;;;6.47;;
7295;SDS011;40758;54.038;11.684;2023-07-13T03:36:54;13.43;;;6.65;;
7295;SDS011;40758;54.038;11.684;2023-07-13T03:39:21;13.18;;;6.55;;
7295;SDS011;40758;54.038;11.684;2023-07-13T03:41:49;10.55;;;6.03;;
7295;SDS011;40758;54.038;11.684;2023-07-13T03:44:16;9.23;;;4.75;;
7295;SDS011;40758;54.038;11.684;2023-07-13T03:46:43;10.05;;;4.82;;
7295;SDS011;40758;54.038;11.684;2023-07-13T03:49:11;8.25;;;4.38;;
7295;SDS011;40758;54.038;11.684;2023-07-13T03:51:38;10.43;;;5.63;;
7295;SDS011;40758;54.038;11.684;2023-07-13T03:54:05;8.65;;;3.78;;
7295;SDS011;40758;54.038;11.684;2023-07-13T03:59:19;8.15;;;3.60;;
7295;SDS011;40758;54.038;11.684;2023-07-13T04:01:46;7.72;;;3.72;;
7295;SDS011;40758;54.038;11.684;2023-07-13T04:04:13;8.15;;;2.70;;
7295;SDS011;40758;54.038;11.684;2023-07-13T04:06:42;6.95;;;3.25;;
7295;SDS011;40758;54.038;11.684;2023-07-13T04:09:08;6.28;;;2.60;;
7295;SDS011;40758;54.038;11.684;2023-07-13T04:11:36;4.78;;;2.38;;
7295;SDS011;40758;54.038;11.684;2023-07-13T04:14:03;4.88;;;2.75;;
